createdAt,value
2023-03-27T00:00:13.385Z,77.80
2023-03-27T00:02:41.588Z,77.90
2023-03-27T00:05:10.492Z,77.70
2023-03-27T00:07:41.403Z,78.00
2023-03-27T00:10:12.224Z,78.60
2023-03-27T00:12:40.251Z,78.80
2023-03-27T00:15:09.763Z,79.10
2023-03-27T00:17:38.046Z,78.80
2023-03-27T00:20:06.950Z,79.10
2023-03-27T00:22:35.894Z,79.60
2023-03-27T00:25:05.189Z,79.40
2023-03-27T00:27:34.597Z,79.40
2023-03-27T00:30:05.136Z,79.00
2023-03-27T00:32:34.445Z,79.10
2023-03-27T00:35:02.535Z,78.70
2023-03-27T00:37:31.374Z,79.00
2023-03-27T00:40:00.316Z,79.20
2023-03-27T00:42:28.880Z,79.20
2023-03-27T00:44:58.212Z,79.40
2023-03-27T00:47:32.962Z,79.60
2023-03-27T00:50:06.555Z,79.90
2023-03-27T00:52:37.084Z,80.40
2023-03-27T00:55:09.759Z,81.20
2023-03-27T00:57:38.096Z,81.30
2023-03-27T01:00:13.285Z,81.50
2023-03-27T01:02:43.801Z,81.80
2023-03-27T01:05:12.865Z,81.30
2023-03-27T01:07:42.201Z,80.90
2023-03-27T01:10:36.960Z,80.90
2023-03-27T01:13:16.528Z,81.30
2023-03-27T01:15:50.906Z,81.20
2023-03-27T01:18:31.926Z,81.20
2023-03-27T01:21:29.054Z,81.20
2023-03-27T01:24:27.165Z,81.30
2023-03-27T01:27:07.538Z,80.90
2023-03-27T01:29:59.515Z,80.90
2023-03-27T01:32:56.240Z,80.80
2023-03-27T01:36:05.692Z,80.90
2023-03-27T01:39:06.483Z,80.80
2023-03-27T01:41:42.007Z,81.20
2023-03-27T01:44:16.676Z,80.90
2023-03-27T01:46:51.011Z,80.90
2023-03-27T01:49:22.404Z,80.90
2023-03-27T01:51:53.227Z,81.70
2023-03-27T01:54:25.871Z,81.60
2023-03-27T01:57:02.309Z,81.50
2023-03-27T01:59:34.852Z,81.60
2023-03-27T02:02:10.796Z,82.00
2023-03-27T02:04:44.962Z,82.40
2023-03-27T02:07:17.796Z,82.60
2023-03-27T02:09:50.222Z,82.60
2023-03-27T02:12:24.974Z,82.80
2023-03-27T02:14:56.001Z,82.70
2023-03-27T02:17:26.367Z,82.40
2023-03-27T02:20:02.463Z,82.30
2023-03-27T02:22:37.742Z,82.60
2023-03-27T02:25:26.333Z,82.20
2023-03-27T02:28:15.818Z,82.00
2023-03-27T02:31:31.049Z,82.10
2023-03-27T02:33:47.939Z,82.20
2023-03-27T02:36:28.348Z,81.90
2023-03-27T02:39:04.439Z,82.10
2023-03-27T02:41:40.170Z,82.60
2023-03-27T02:44:46.270Z,82.10
2023-03-27T02:47:19.445Z,82.50
2023-03-27T02:49:52.363Z,82.90
2023-03-27T02:52:26.208Z,82.30
2023-03-27T02:55:04.809Z,82.70
2023-03-27T02:57:34.087Z,82.70
2023-03-27T03:00:28.023Z,82.80
2023-03-27T03:03:14.947Z,82.80
2023-03-27T03:05:43.419Z,82.70
2023-03-27T03:08:11.768Z,81.90
2023-03-27T03:10:44.581Z,82.30
2023-03-27T03:13:14.116Z,81.90
2023-03-27T03:15:46.643Z,82.90
2023-03-27T03:18:15.166Z,82.50
2023-03-27T03:20:44.470Z,83.00
2023-03-27T03:23:12.632Z,82.40
2023-03-27T03:25:41.436Z,82.50
2023-03-27T03:28:10.606Z,82.30
2023-03-27T03:30:41.957Z,82.70
2023-03-27T03:33:14.214Z,83.00
2023-03-27T03:35:43.192Z,82.90
2023-03-27T03:38:25.728Z,82.90
2023-03-27T03:40:55.833Z,82.50
2023-03-27T03:43:25.430Z,83.00
2023-03-27T03:45:55.576Z,83.10
2023-03-27T03:48:25.436Z,83.10
2023-03-27T03:50:54.628Z,83.10
2023-03-27T03:53:23.474Z,83.30
2023-03-27T03:55:53.330Z,83.10
2023-03-27T03:58:21.516Z,83.50
2023-03-27T04:01:05.952Z,84.00
2023-03-27T04:03:44.025Z,83.80
2023-03-27T04:06:12.240Z,83.70
2023-03-27T04:08:40.501Z,84.00
2023-03-27T04:11:28.132Z,84.60
2023-03-27T04:14:07.123Z,84.10
2023-03-27T04:16:40.913Z,84.30
2023-03-27T04:19:19.756Z,84.00
2023-03-27T04:21:56.127Z,84.40
2023-03-27T04:24:24.614Z,84.70
2023-03-27T04:26:52.887Z,84.40
2023-03-27T04:29:30.153Z,84.60
2023-03-27T04:32:01.099Z,84.30
2023-03-27T04:34:42.625Z,84.30
2023-03-27T04:37:33.692Z,84.40
2023-03-27T04:40:18.983Z,84.10
2023-03-27T04:42:47.272Z,84.30
2023-03-27T04:45:17.651Z,83.40
2023-03-27T04:47:49.079Z,83.60
2023-03-27T04:50:19.138Z,84.00
2023-03-27T04:52:49.819Z,84.20
2023-03-27T04:55:19.793Z,84.30
2023-03-27T04:57:50.839Z,84.60
2023-03-27T05:00:20.560Z,84.90
2023-03-27T05:03:08.729Z,85.10
2023-03-27T05:06:03.734Z,85.10
2023-03-27T05:08:32.568Z,85.00
2023-03-27T05:11:00.913Z,85.40
2023-03-27T05:13:36.626Z,85.20
2023-03-27T05:16:05.127Z,85.50
2023-03-27T05:18:42.064Z,85.80
2023-03-27T05:21:11.779Z,86.50
2023-03-27T05:23:40.129Z,86.80
2023-03-27T05:26:09.357Z,86.70
2023-03-27T05:28:59.506Z,86.60
2023-03-27T05:31:31.355Z,86.50
2023-03-27T05:34:18.130Z,86.70
2023-03-27T05:36:49.246Z,86.50
2023-03-27T05:39:17.365Z,86.70
2023-03-27T05:41:48.122Z,87.20
2023-03-27T05:44:23.607Z,87.60
2023-03-27T05:46:52.042Z,87.70
2023-03-27T05:49:26.438Z,87.50
2023-03-27T05:52:01.887Z,87.30
2023-03-27T05:54:31.160Z,87.60
2023-03-27T05:57:04.559Z,87.50
2023-03-27T05:59:33.295Z,87.40
2023-03-27T06:02:20.600Z,87.30
2023-03-27T06:04:56.223Z,87.30
2023-03-27T06:07:30.252Z,87.30
2023-03-27T06:10:03.443Z,87.40
2023-03-27T06:12:34.840Z,86.90
2023-03-27T06:15:11.569Z,86.80
2023-03-27T06:17:48.505Z,87.10
2023-03-27T06:20:16.907Z,87.20
2023-03-27T06:22:55.713Z,86.90
2023-03-27T06:25:33.182Z,87.40
2023-03-27T06:28:01.544Z,87.30
2023-03-27T06:30:30.377Z,87.60
2023-03-27T06:33:38.458Z,87.50
2023-03-27T06:36:08.550Z,88.40
2023-03-27T06:38:39.157Z,88.90
2023-03-27T06:41:07.309Z,88.60
2023-03-27T06:44:10.981Z,88.50
2023-03-27T06:46:54.884Z,88.20
2023-03-27T06:49:33.247Z,88.50
2023-03-27T06:52:10.063Z,88.40
2023-03-27T06:54:39.370Z,88.60
2023-03-27T06:57:07.486Z,88.90
2023-03-27T06:59:49.976Z,88.60
2023-03-27T07:02:22.838Z,88.80
2023-03-27T07:05:03.802Z,88.70
2023-03-27T07:07:41.598Z,88.20
2023-03-27T07:10:12.820Z,87.50
2023-03-27T07:12:45.410Z,88.10
2023-03-27T07:15:17.748Z,87.10
2023-03-27T07:17:49.175Z,87.20
2023-03-27T07:20:20.347Z,87.20
2023-03-27T07:22:48.333Z,87.90
2023-03-27T07:25:45.269Z,88.20
2023-03-27T07:28:21.969Z,88.10
2023-03-27T07:30:50.340Z,86.80
2023-03-27T07:33:22.096Z,86.80
2023-03-27T07:35:50.307Z,86.10
2023-03-27T07:38:41.032Z,86.90
2023-03-27T07:41:30.048Z,85.90
2023-03-27T07:43:58.078Z,86.50
2023-03-27T07:46:28.162Z,87.40
2023-03-27T07:48:56.620Z,86.70
2023-03-27T07:51:27.472Z,86.70
2023-03-27T07:53:58.466Z,86.80
2023-03-27T07:56:34.549Z,85.60
2023-03-27T07:59:25.804Z,84.80
2023-03-27T08:01:55.480Z,84.30
2023-03-27T08:04:27.198Z,83.80
2023-03-27T08:07:05.175Z,84.30
2023-03-27T08:09:33.679Z,84.20
2023-03-27T08:12:03.600Z,84.30
2023-03-27T08:14:33.144Z,83.00
2023-03-27T08:17:16.228Z,82.50
2023-03-27T08:19:46.333Z,82.40
2023-03-27T08:22:15.302Z,83.10
2023-03-27T08:25:03.624Z,83.60
2023-03-27T08:27:33.543Z,82.50
2023-03-27T08:30:02.593Z,82.90
2023-03-27T08:32:33.802Z,83.20
2023-03-27T08:35:08.376Z,82.70
2023-03-27T08:37:36.575Z,83.20
2023-03-27T08:40:33.915Z,83.70
2023-03-27T08:43:29.643Z,83.50
2023-03-27T08:46:02.625Z,82.80
2023-03-27T08:48:39.262Z,82.00
2023-03-27T08:51:13.728Z,81.30
2023-03-27T08:53:50.331Z,80.60
2023-03-27T08:56:22.911Z,80.50
2023-03-27T08:58:55.207Z,79.30
2023-03-27T09:01:31.203Z,78.30
2023-03-27T09:04:12.669Z,78.60
2023-03-27T09:06:52.694Z,76.40
2023-03-27T09:09:33.180Z,76.30
2023-03-27T09:12:12.158Z,76.80
2023-03-27T09:14:47.633Z,77.60
2023-03-27T09:17:21.336Z,75.00
2023-03-27T09:19:55.069Z,75.10
2023-03-27T09:22:31.195Z,77.60
2023-03-27T09:25:23.240Z,78.30
2023-03-27T09:27:54.569Z,77.80
2023-03-27T09:30:35.822Z,78.10
2023-03-27T09:33:11.559Z,78.30
2023-03-27T09:35:43.407Z,78.70
2023-03-27T09:38:27.884Z,78.20
2023-03-27T09:40:59.254Z,77.70
2023-03-27T09:43:34.073Z,75.80
2023-03-27T09:46:04.980Z,77.20
2023-03-27T09:48:37.343Z,82.10
2023-03-27T09:51:36.989Z,87.30
2023-03-27T09:54:06.515Z,89.30
2023-03-27T09:56:39.485Z,90.80
2023-03-27T09:59:21.498Z,91.70
2023-03-27T10:01:52.694Z,90.60
2023-03-27T10:04:23.086Z,90.60
2023-03-27T10:07:01.721Z,90.30
2023-03-27T10:10:06.810Z,88.00
2023-03-27T10:12:41.501Z,87.40
2023-03-27T10:15:31.410Z,87.50
2023-03-27T10:18:04.367Z,89.80
2023-03-27T10:20:32.948Z,88.70
2023-03-27T10:23:02.866Z,86.10
2023-03-27T10:25:37.944Z,84.60
2023-03-27T10:28:26.020Z,84.50
2023-03-27T10:31:28.119Z,86.60
2023-03-27T10:34:04.665Z,84.60
2023-03-27T10:36:55.530Z,84.10
2023-03-27T10:39:29.451Z,84.40
2023-03-27T10:42:10.005Z,83.20
2023-03-27T10:44:44.732Z,82.20
2023-03-27T10:47:18.652Z,82.90
2023-03-27T10:49:56.566Z,81.90
2023-03-27T10:52:43.777Z,79.70
2023-03-27T10:55:29.929Z,81.40
2023-03-27T10:58:01.218Z,79.30
2023-03-27T11:00:39.878Z,79.50
2023-03-27T11:03:17.652Z,80.00
2023-03-27T11:05:53.642Z,77.60
2023-03-27T11:08:46.778Z,76.50
2023-03-27T11:11:18.911Z,78.10
2023-03-27T11:13:50.145Z,82.40
2023-03-27T11:16:23.166Z,87.10
2023-03-27T11:19:31.029Z,88.40
2023-03-27T11:22:26.398Z,89.70
2023-03-27T11:24:58.241Z,91.50
2023-03-27T11:27:33.900Z,90.20
2023-03-27T11:30:16.886Z,89.60
2023-03-27T11:33:06.657Z,89.40
2023-03-27T11:35:39.501Z,89.60
2023-03-27T11:38:33.597Z,88.20
2023-03-27T11:41:03.787Z,87.00
2023-03-27T11:43:32.969Z,87.60
2023-03-27T11:46:14.368Z,84.50
2023-03-27T11:49:01.911Z,84.70
2023-03-27T11:51:43.343Z,84.70
2023-03-27T11:54:25.814Z,86.90
2023-03-27T11:57:03.548Z,90.10
2023-03-27T12:00:20.095Z,90.10
2023-03-27T12:03:13.429Z,90.50
2023-03-27T12:06:05.485Z,90.80
2023-03-27T12:08:51.728Z,90.70
2023-03-27T12:11:22.522Z,90.80
2023-03-27T12:14:17.536Z,89.10
2023-03-27T12:17:21.704Z,89.50
2023-03-27T12:20:32.439Z,87.40
2023-03-27T12:23:25.403Z,86.40
2023-03-27T12:26:26.801Z,83.20
2023-03-27T12:29:35.484Z,85.00
2023-03-27T12:32:21.663Z,80.50
2023-03-27T12:34:55.696Z,80.40
2023-03-27T12:37:31.800Z,77.60
2023-03-27T12:40:02.239Z,77.10
2023-03-27T12:42:44.513Z,77.30
2023-03-27T12:45:18.320Z,79.80
2023-03-27T12:48:16.636Z,90.30
2023-03-27T12:50:54.934Z,96.20
2023-03-27T12:53:49.930Z,99.10
2023-03-27T12:56:32.888Z,99.60
2023-03-27T12:59:14.365Z,99.60
2023-03-27T13:02:15.852Z,99.60
2023-03-27T13:05:26.958Z,99.60
2023-03-27T13:08:24.747Z,99.60
2023-03-27T13:11:12.774Z,97.70
2023-03-27T13:14:14.544Z,99.60
2023-03-27T13:17:23.591Z,98.70
2023-03-27T13:19:59.873Z,99.60
2023-03-27T13:22:54.390Z,98.50
2023-03-27T13:25:39.574Z,96.30
2023-03-27T13:28:29.763Z,94.10
2023-03-27T13:31:11.285Z,92.50
2023-03-27T13:33:44.869Z,91.00
2023-03-27T13:36:19.106Z,91.90
2023-03-27T13:39:21.110Z,93.40
2023-03-27T13:42:02.894Z,91.80
2023-03-27T13:44:47.917Z,93.20
2023-03-27T13:47:48.154Z,93.60
2023-03-27T13:50:53.796Z,92.10
2023-03-27T13:53:35.360Z,93.50
2023-03-27T13:56:45.891Z,95.00
2023-03-27T13:59:40.548Z,97.20
2023-03-27T14:02:42.186Z,98.20
2023-03-27T14:05:25.234Z,97.70
2023-03-27T14:08:15.179Z,97.20
2023-03-27T14:11:23.717Z,97.10
2023-03-27T14:14:18.218Z,96.90
2023-03-27T14:17:24.077Z,98.00
2023-03-27T14:20:23.763Z,96.00
2023-03-27T14:22:56.904Z,93.70
2023-03-27T14:25:35.180Z,94.50
2023-03-27T14:28:32.756Z,92.00
2023-03-27T14:31:08.484Z,93.00
2023-03-27T14:34:02.864Z,92.70
2023-03-27T14:36:34.713Z,94.30
2023-03-27T14:39:15.755Z,90.10
2023-03-27T14:41:49.924Z,89.80
2023-03-27T14:44:19.164Z,90.10
2023-03-27T14:46:48.902Z,86.50
2023-03-27T14:49:20.731Z,87.00
2023-03-27T14:51:55.696Z,83.60
2023-03-27T14:54:54.754Z,83.60
2023-03-27T14:57:28.767Z,84.00
2023-03-27T15:00:00.487Z,83.50
2023-03-27T15:02:32.614Z,81.80
2023-03-27T15:05:05.831Z,83.50
2023-03-27T15:07:36.288Z,82.10
2023-03-27T15:10:26.174Z,83.50
2023-03-27T15:13:14.160Z,82.50
2023-03-27T15:15:50.181Z,81.40
2023-03-27T15:18:24.571Z,79.70
2023-03-27T15:20:55.052Z,80.50
2023-03-27T15:23:28.470Z,79.40
2023-03-27T15:26:01.483Z,79.60
2023-03-27T15:28:34.145Z,82.10
2023-03-27T15:31:04.614Z,86.50
2023-03-27T15:33:37.401Z,84.10
2023-03-27T15:36:11.391Z,83.20
2023-03-27T15:38:39.648Z,81.50
2023-03-27T15:41:36.621Z,76.60
2023-03-27T15:44:09.420Z,73.40
2023-03-27T15:46:48.675Z,73.10
2023-03-27T15:49:32.183Z,71.30
2023-03-27T15:52:02.237Z,70.40
2023-03-27T15:54:33.230Z,68.60
2023-03-27T15:57:10.290Z,67.10
2023-03-27T15:59:53.016Z,67.80
2023-03-27T16:02:22.656Z,67.00
2023-03-27T16:04:54.396Z,65.00
2023-03-27T16:07:25.089Z,64.00
2023-03-27T16:09:56.329Z,62.20
2023-03-27T16:12:30.085Z,61.10
2023-03-27T16:15:01.530Z,58.80
2023-03-27T16:17:34.687Z,57.90
2023-03-27T16:20:08.010Z,57.30
2023-03-27T16:22:38.149Z,56.90
2023-03-27T16:25:08.625Z,57.40
2023-03-27T16:27:38.937Z,58.70
2023-03-27T16:30:20.982Z,59.00
2023-03-27T16:32:49.114Z,60.40
2023-03-27T16:35:17.359Z,61.50
2023-03-27T16:37:45.689Z,62.10
2023-03-27T16:40:13.867Z,63.20
2023-03-27T16:42:42.261Z,64.80
2023-03-27T16:45:12.343Z,64.40
2023-03-27T16:47:41.530Z,63.20
2023-03-27T16:50:15.975Z,62.70
2023-03-27T16:52:44.072Z,63.80
2023-03-27T16:55:13.863Z,64.80
2023-03-27T16:57:42.840Z,70.30
2023-03-27T17:00:13.919Z,74.70
2023-03-27T17:02:44.300Z,72.50
2023-03-27T17:05:12.808Z,72.10
2023-03-27T17:07:41.831Z,69.30
2023-03-27T17:10:11.231Z,67.70
2023-03-27T17:12:39.275Z,67.90
2023-03-27T17:15:08.586Z,66.50
2023-03-27T17:17:38.035Z,65.50
2023-03-27T17:20:07.788Z,66.00
2023-03-27T17:22:36.442Z,67.00
2023-03-27T17:25:06.092Z,68.10
2023-03-27T17:27:34.422Z,69.40
2023-03-27T17:30:02.796Z,69.20
2023-03-27T17:32:30.882Z,70.40
2023-03-27T17:35:00.326Z,70.40
2023-03-27T17:37:28.415Z,70.70
2023-03-27T17:39:56.447Z,71.00
2023-03-27T17:42:24.480Z,71.20
2023-03-27T17:44:52.437Z,71.30
2023-03-27T17:47:20.851Z,72.40
2023-03-27T17:49:49.035Z,73.00
2023-03-27T17:52:19.406Z,72.70
2023-03-27T17:54:47.430Z,72.70
2023-03-27T17:57:15.801Z,72.70
2023-03-27T17:59:46.356Z,73.00
2023-03-27T18:02:17.787Z,73.70
2023-03-27T18:04:47.887Z,73.90
2023-03-27T18:07:15.944Z,73.80
2023-03-27T18:09:45.406Z,73.80
2023-03-27T18:12:13.512Z,73.90
2023-03-27T18:14:43.093Z,74.10
2023-03-27T18:17:11.500Z,74.50
2023-03-27T18:19:39.467Z,75.30
2023-03-27T18:22:07.533Z,75.60
2023-03-27T18:24:35.590Z,76.20
2023-03-27T18:27:05.082Z,76.90
2023-03-27T18:29:33.874Z,77.30
2023-03-27T18:32:02.002Z,77.40
2023-03-27T18:34:29.924Z,77.20
2023-03-27T18:36:57.899Z,77.50
2023-03-27T18:39:25.969Z,77.50
2023-03-27T18:41:55.033Z,77.70
2023-03-27T18:44:24.460Z,77.80
2023-03-27T18:46:52.449Z,77.90
2023-03-27T18:49:24.902Z,78.30
2023-03-27T18:51:53.702Z,78.40
2023-03-27T18:54:21.654Z,78.20
2023-03-27T18:56:49.728Z,78.20
2023-03-27T18:59:17.978Z,78.30
2023-03-27T19:01:47.311Z,78.50
2023-03-27T19:04:17.143Z,78.90
2023-03-27T19:06:46.217Z,79.40
2023-03-27T19:09:14.587Z,79.30
2023-03-27T19:11:43.958Z,79.60
2023-03-27T19:14:17.975Z,80.00
2023-03-27T19:17:07.603Z,80.10
2023-03-27T19:19:54.772Z,79.90
2023-03-27T19:22:35.452Z,79.90
2023-03-27T19:25:16.217Z,79.90
2023-03-27T19:27:44.564Z,80.00
2023-03-27T19:30:18.264Z,79.90
2023-03-27T19:32:47.622Z,80.10
2023-03-27T19:35:15.643Z,79.80
2023-03-27T19:37:43.670Z,79.90
2023-03-27T19:40:13.152Z,79.60
2023-03-27T19:42:41.296Z,79.30
2023-03-27T19:45:10.350Z,79.70
2023-03-27T19:47:38.464Z,79.50
2023-03-27T19:50:09.646Z,79.80
2023-03-27T19:52:57.270Z,79.90
2023-03-27T19:55:33.782Z,79.70
2023-03-27T19:58:01.778Z,79.90
2023-03-27T20:00:31.515Z,79.60
2023-03-27T20:02:59.964Z,79.60
2023-03-27T20:05:29.514Z,79.70
2023-03-27T20:07:57.713Z,79.60
2023-03-27T20:10:27.031Z,79.30
2023-03-27T20:12:55.087Z,79.50
2023-03-27T20:15:23.156Z,79.30
2023-03-27T20:17:51.326Z,79.30
2023-03-27T20:20:19.772Z,79.70
2023-03-27T20:22:57.549Z,79.50
2023-03-27T20:25:28.309Z,79.90
2023-03-27T20:27:56.492Z,80.00
2023-03-27T20:30:24.543Z,79.80
2023-03-27T20:32:53.245Z,79.40
2023-03-27T20:35:24.826Z,79.80
2023-03-27T20:37:57.683Z,79.70
2023-03-27T20:40:27.459Z,79.90
2023-03-27T20:43:05.729Z,79.70
2023-03-27T20:45:33.728Z,79.30
2023-03-27T20:48:04.296Z,79.60
2023-03-27T20:50:35.125Z,79.70
2023-03-27T20:53:05.104Z,79.70
2023-03-27T20:55:39.276Z,79.30
2023-03-27T20:58:09.645Z,79.20
2023-03-27T21:00:37.809Z,79.50
2023-03-27T21:03:06.411Z,79.50
2023-03-27T21:05:38.255Z,79.40
2023-03-27T21:08:08.649Z,79.40
2023-03-27T21:10:36.752Z,79.50
2023-03-27T21:13:05.010Z,79.50
2023-03-27T21:15:33.408Z,79.30
2023-03-27T21:18:02.207Z,79.50
2023-03-27T21:20:31.752Z,79.40
2023-03-27T21:23:00.687Z,79.30
2023-03-27T21:25:30.282Z,79.40
2023-03-27T21:28:04.134Z,79.60
2023-03-27T21:30:47.170Z,79.20
2023-03-27T21:33:17.394Z,79.70
2023-03-27T21:35:47.384Z,79.90
2023-03-27T21:38:16.594Z,79.90
2023-03-27T21:40:47.220Z,80.30
2023-03-27T21:43:15.743Z,80.70
2023-03-27T21:45:44.421Z,80.70
2023-03-27T21:48:12.532Z,80.80
2023-03-27T21:50:40.708Z,81.10
2023-03-27T21:53:08.740Z,80.80
2023-03-27T21:55:37.375Z,81.30
2023-03-27T21:58:07.076Z,81.50
2023-03-27T22:00:35.081Z,81.20
2023-03-27T22:03:03.200Z,81.50
2023-03-27T22:05:36.062Z,81.20
2023-03-27T22:08:05.890Z,81.00
2023-03-27T22:10:35.409Z,81.20
2023-03-27T22:13:04.107Z,81.10
2023-03-27T22:15:33.771Z,81.10
2023-03-27T22:18:02.233Z,81.10
2023-03-27T22:20:30.399Z,81.00
2023-03-27T22:22:58.493Z,81.00
2023-03-27T22:25:26.576Z,81.20
2023-03-27T22:27:54.628Z,80.90
2023-03-27T22:30:22.636Z,81.20
2023-03-27T22:32:52.040Z,80.70
2023-03-27T22:35:20.290Z,81.10
2023-03-27T22:37:48.332Z,81.30
2023-03-27T22:40:16.416Z,81.20
2023-03-27T22:42:44.451Z,81.10
2023-03-27T22:45:12.840Z,81.70
2023-03-27T22:47:41.091Z,81.60
2023-03-27T22:50:11.302Z,81.60
2023-03-27T22:52:39.323Z,81.60
2023-03-27T22:55:08.689Z,81.40
2023-03-27T22:57:37.779Z,81.50
2023-03-27T23:00:06.958Z,81.80
2023-03-27T23:02:35.102Z,82.20
2023-03-27T23:05:04.258Z,82.40
2023-03-27T23:07:33.624Z,82.70
2023-03-27T23:10:01.778Z,82.60
2023-03-27T23:12:29.822Z,82.70
2023-03-27T23:14:57.879Z,83.20
2023-03-27T23:17:25.919Z,82.80
2023-03-27T23:19:54.015Z,83.10
2023-03-27T23:22:22.041Z,83.30
2023-03-27T23:24:51.486Z,83.30
2023-03-27T23:27:19.481Z,83.20
2023-03-27T23:29:48.024Z,83.10
2023-03-27T23:32:16.056Z,83.20
2023-03-27T23:34:44.043Z,83.30
2023-03-27T23:37:11.984Z,83.00
2023-03-27T23:39:40.010Z,82.90
2023-03-27T23:42:09.347Z,83.10
2023-03-27T23:44:37.383Z,82.90
2023-03-27T23:47:05.912Z,82.60
2023-03-27T23:49:33.867Z,82.60
2023-03-27T23:52:01.842Z,82.70
2023-03-27T23:54:29.932Z,82.70
2023-03-27T23:56:58.004Z,82.60
2023-03-27T23:59:27.505Z,81.90
